createdAt,value
2018-12-04T12:56:14.159Z,965.1
2018-12-04T12:59:36.028Z,965.1
2018-12-04T13:02:57.977Z,965
2018-12-04T13:06:19.773Z,965
2018-12-04T13:09:41.640Z,965
2018-12-04T13:13:03.521Z,965.1
2018-12-04T13:16:25.433Z,965
2018-12-04T13:19:47.322Z,965.1
2018-12-04T13:23:09.284Z,965.1
2018-12-04T13:26:31.179Z,965.2
2018-12-04T13:29:53.077Z,96520
2018-12-04T13:33:14.905Z,96520
2018-12-04T13:36:36.699Z,96530
2018-12-04T13:39:58.542Z,96530
2018-12-04T13:43:20.476Z,96530
2018-12-04T13:46:43.947Z,96530
2018-12-04T13:50:04.205Z,96530
2018-12-04T13:53:26.013Z,96540
2018-12-04T13:56:47.872Z,96540
2018-12-04T14:00:09.852Z,96540
2018-12-04T14:03:31.679Z,96540
2018-12-04T14:06:53.555Z,96550
2018-12-04T14:10:15.336Z,96560
2018-12-04T14:13:37.232Z,96550
2018-12-04T14:16:59.120Z,96560
2018-12-04T14:20:20.833Z,96560
2018-12-04T14:23:42.743Z,96570
2018-12-04T14:27:04.521Z,96580
2018-12-04T14:30:26.618Z,96590
2018-12-04T14:53:05.578Z,96620
2018-12-04T14:56:27.460Z,96630
2018-12-04T14:59:49.340Z,96630
2018-12-04T15:03:11.416Z,96640
2018-12-04T15:06:35.750Z,96640
2018-12-04T15:09:55.317Z,96640
2018-12-04T15:13:17.199Z,96650
2018-12-04T15:16:39.174Z,96650
2018-12-04T15:20:01.176Z,96660
2018-12-04T15:23:23.135Z,96650
2018-12-04T15:26:45.086Z,96660
2018-12-04T15:30:07.042Z,96660
2018-12-04T15:33:29.029Z,96670
2018-12-04T15:36:51.082Z,96660
2018-12-04T15:40:13.075Z,96670
2018-12-04T15:43:35.024Z,96680
2018-12-04T15:46:56.974Z,96690
2018-12-04T15:50:19.021Z,96700
2018-12-04T15:53:40.967Z,96710
2018-12-04T15:57:02.981Z,96720
2018-12-04T16:00:25.041Z,96720
2018-12-04T16:03:46.973Z,96720
2018-12-04T16:07:08.974Z,96740
2018-12-04T16:10:30.936Z,96750
2018-12-04T16:13:52.869Z,96760
2018-12-04T16:17:14.853Z,96770
2018-12-04T16:20:39.996Z,96760
2018-12-04T16:23:58.977Z,96760
2018-12-04T16:27:20.940Z,96770
2018-12-04T16:30:42.881Z,96780
2018-12-04T16:34:04.883Z,96780
2018-12-04T16:37:26.947Z,96770
2018-12-04T16:40:49.007Z,96780
2018-12-04T16:44:10.940Z,96780
2018-12-04T16:47:33.033Z,96790
2018-12-04T16:50:54.959Z,96790
2018-12-04T16:54:16.975Z,96800
2018-12-04T16:57:39.066Z,96800
2018-12-04T17:01:00.979Z,96800
2018-12-04T17:04:23.070Z,96800
2018-12-04T17:07:44.997Z,96820
2018-12-04T17:11:07.384Z,96820
2018-12-04T17:14:29.055Z,96820
2018-12-04T17:17:50.976Z,96830
2018-12-04T17:21:13.035Z,96830
2018-12-04T17:24:34.979Z,96830
2018-12-04T17:27:57.005Z,96830
2018-12-04T17:31:20.983Z,96830
2018-12-04T17:34:41.070Z,96830
2018-12-04T17:38:03.073Z,96840
2018-12-04T17:41:24.984Z,96840
2018-12-04T17:44:47.050Z,96840
2018-12-04T17:48:09.032Z,96850
2018-12-04T17:51:30.949Z,96850
2018-12-04T17:54:52.944Z,96850
2018-12-04T17:58:14.939Z,96850
2018-12-04T18:01:36.987Z,96860
2018-12-04T18:04:58.901Z,96860
2018-12-04T18:08:20.895Z,96860
2018-12-04T18:11:42.870Z,96860
2018-12-04T18:15:04.876Z,96860
2018-12-04T18:18:26.987Z,96860
2018-12-04T18:21:48.900Z,96860
2018-12-04T18:25:10.991Z,96870
2018-12-04T18:28:33.013Z,96860
2018-12-04T18:31:54.957Z,96850
2018-12-04T18:35:17.034Z,96860
2018-12-04T18:38:38.958Z,96860
2018-12-04T18:42:01.035Z,96870
2018-12-04T18:45:22.977Z,96880
2018-12-04T18:48:45.072Z,96870
2018-12-04T18:52:06.990Z,96870
2018-12-04T18:55:29.016Z,96880
2018-12-04T18:58:51.076Z,96880
2018-12-04T19:02:13.060Z,96880
2018-12-04T19:05:34.979Z,96870
2018-12-04T19:08:57.042Z,96890
2018-12-04T19:12:18.950Z,96880
2018-12-04T19:15:40.942Z,96880
2018-12-04T19:19:02.991Z,96880
2018-12-04T19:22:24.976Z,96890
2018-12-04T19:25:46.988Z,96900
2018-12-04T19:29:08.926Z,96900
2018-12-04T19:32:30.953Z,96900
2018-12-04T19:35:53.037Z,96890
2018-12-04T19:39:15.051Z,96900
2018-12-04T19:42:37.072Z,96900
2018-12-04T19:46:01.509Z,96900
2018-12-04T19:49:21.032Z,96900
2018-12-04T19:52:43.099Z,96900
2018-12-04T19:56:05.112Z,96900
2018-12-04T19:59:27.046Z,96900
2018-12-04T20:02:49.064Z,96900
2018-12-04T20:06:11.132Z,96900
2018-12-04T20:09:33.062Z,96900
2018-12-04T20:12:55.153Z,96890
2018-12-04T20:16:17.116Z,96890
2018-12-04T20:19:39.205Z,96900
2018-12-04T20:23:01.151Z,96900
2018-12-04T20:26:23.221Z,96900
2018-12-04T20:29:45.160Z,96900
2018-12-04T20:33:07.184Z,96900
2018-12-04T20:36:29.208Z,96900
2018-12-04T20:39:51.210Z,96900
2018-12-04T20:43:13.211Z,96910
2018-12-04T20:46:35.267Z,96910
2018-12-04T20:49:57.345Z,96910
2018-12-04T20:53:19.269Z,96900
2018-12-04T20:56:41.363Z,96900
2018-12-04T21:00:03.365Z,96910
2018-12-04T21:03:25.376Z,96930
2018-12-04T21:06:47.402Z,96930
2018-12-04T21:10:09.413Z,96920
2018-12-04T21:13:31.479Z,96920
2018-12-04T21:16:53.382Z,96930
2018-12-04T21:20:15.496Z,96930
2018-12-04T21:23:37.470Z,96930
2018-12-04T21:26:59.581Z,96930
2018-12-04T21:30:21.500Z,96920
2018-12-04T21:33:43.553Z,96930
2018-12-04T21:37:05.662Z,96930
2018-12-04T21:40:27.613Z,96930
2018-12-04T21:43:49.658Z,96930
2018-12-04T21:47:11.724Z,96930
2018-12-04T21:50:33.797Z,96930
2018-12-04T21:53:55.913Z,96930
2018-12-04T21:57:17.873Z,96930
2018-12-04T22:00:39.939Z,96930
2018-12-04T22:04:01.997Z,96940
2018-12-04T22:07:24.127Z,96940
2018-12-04T22:10:46.161Z,96940
2018-12-04T22:14:08.229Z,96940
2018-12-04T22:17:30.154Z,96940
2018-12-04T22:20:52.317Z,96940
2018-12-04T22:24:14.265Z,96940
2018-12-04T22:27:36.284Z,96940
2018-12-04T22:30:58.412Z,96950
2018-12-04T22:34:20.386Z,96960
2018-12-04T22:37:42.424Z,96960
2018-12-04T22:41:04.542Z,96950
2018-12-04T22:44:26.507Z,96950
2018-12-04T22:47:48.633Z,96940
2018-12-04T22:51:10.703Z,96950
2018-12-04T22:54:32.693Z,96950
2018-12-04T22:57:54.720Z,96970
2018-12-04T23:01:16.708Z,96980
2018-12-04T23:04:38.719Z,96980
2018-12-04T23:08:00.769Z,96970
2018-12-04T23:11:22.788Z,96970
2018-12-04T23:14:44.893Z,96970
2018-12-04T23:18:06.858Z,96970
2018-12-04T23:21:28.955Z,96970
2018-12-04T23:24:50.973Z,96960
2018-12-04T23:28:13.024Z,96970
2018-12-04T23:31:35.055Z,96960
2018-12-04T23:34:57.015Z,96950
2018-12-04T23:38:19.010Z,96950
2018-12-04T23:41:41.040Z,96950
2018-12-04T23:45:03.051Z,96950
2018-12-04T23:48:25.052Z,96940
2018-12-04T23:51:47.130Z,96920
2018-12-04T23:55:09.102Z,96910
2018-12-04T23:58:31.139Z,96920
